createdAt,value
2023-04-24T00:00:04.422Z,16.38
2023-04-24T00:02:04.494Z,16.12
2023-04-24T00:04:04.221Z,16.19
2023-04-24T00:06:04.412Z,16.00
2023-04-24T00:08:03.768Z,15.94
2023-04-24T00:09:03.448Z,15.94
2023-04-24T00:10:03.642Z,15.88
2023-04-24T00:12:03.847Z,16.06
2023-04-24T00:13:04.338Z,16.06
2023-04-24T00:15:04.367Z,16.12
2023-04-24T00:16:03.845Z,16.06
2023-04-24T00:18:04.057Z,16.06
2023-04-24T00:19:04.099Z,16.12
2023-04-24T00:20:03.536Z,16.25
2023-04-24T00:21:03.523Z,16.25
2023-04-24T00:22:03.535Z,16.12
2023-04-24T00:23:04.351Z,16.12
2023-04-24T00:24:04.001Z,15.94
2023-04-24T00:25:03.914Z,15.94
2023-04-24T00:26:03.936Z,15.88
2023-04-24T00:27:04.751Z,15.94
2023-04-24T00:28:04.417Z,15.94
2023-04-24T00:30:03.529Z,15.88
2023-04-24T00:32:03.967Z,16.00
2023-04-24T00:34:04.331Z,16.00
2023-04-24T00:35:04.442Z,15.88
2023-04-24T00:37:04.329Z,16.12
2023-04-24T00:38:04.240Z,16.06
2023-04-24T00:39:04.089Z,16.12
2023-04-24T00:41:04.410Z,16.00
2023-04-24T00:43:04.346Z,15.81
2023-04-24T00:44:03.933Z,15.75
2023-04-24T00:45:04.510Z,15.69
2023-04-24T00:46:03.980Z,15.69
2023-04-24T00:47:03.972Z,15.62
2023-04-24T00:49:04.248Z,15.62
2023-04-24T00:50:03.853Z,15.62
2023-04-24T00:51:03.845Z,15.62
2023-04-24T00:52:04.334Z,15.50
2023-04-24T00:55:04.103Z,15.44
2023-04-24T00:56:04.490Z,15.50
2023-04-24T00:57:04.017Z,15.50
2023-04-24T00:58:04.254Z,15.50
2023-04-24T00:59:03.692Z,15.50
2023-04-24T01:01:04.103Z,15.44
2023-04-24T01:02:03.535Z,15.44
2023-04-24T01:03:04.101Z,15.44
2023-04-24T01:04:03.784Z,15.44
2023-04-24T01:05:03.528Z,15.44
2023-04-24T01:06:04.002Z,15.38
2023-04-24T01:07:03.855Z,15.31
2023-04-24T01:08:03.768Z,15.25
2023-04-24T01:10:04.181Z,15.38
2023-04-24T01:11:03.704Z,15.38
2023-04-24T01:12:04.096Z,15.31
2023-04-24T01:14:04.006Z,15.25
2023-04-24T01:15:04.431Z,15.31
2023-04-24T01:17:03.773Z,15.25
2023-04-24T01:19:04.098Z,15.38
2023-04-24T01:20:03.693Z,15.44
2023-04-24T01:22:03.850Z,15.44
2023-04-24T01:23:04.331Z,15.44
2023-04-24T01:25:04.256Z,15.50
2023-04-24T01:26:03.796Z,15.62
2023-04-24T01:28:03.768Z,15.44
2023-04-24T01:30:04.017Z,15.44
2023-04-24T01:31:04.507Z,15.44
2023-04-24T01:32:04.016Z,15.44
2023-04-24T01:33:04.455Z,15.50
2023-04-24T01:34:04.259Z,15.50
2023-04-24T01:35:04.175Z,15.56
2023-04-24T01:36:04.175Z,15.56
2023-04-24T01:37:03.644Z,15.44
2023-04-24T01:39:03.846Z,15.50
2023-04-24T01:40:03.854Z,15.50
2023-04-24T01:41:04.252Z,15.56
2023-04-24T01:42:04.186Z,15.44
2023-04-24T01:44:04.431Z,15.38
2023-04-24T01:45:04.174Z,15.25
2023-04-24T01:46:04.009Z,15.19
2023-04-24T01:47:04.481Z,15.12
2023-04-24T01:48:04.111Z,15.12
2023-04-24T01:49:04.012Z,15.12
2023-04-24T01:50:03.851Z,15.19
2023-04-24T01:51:03.783Z,15.12
2023-04-24T01:53:04.003Z,14.94
2023-04-24T01:54:04.493Z,14.88
2023-04-24T01:55:04.433Z,14.88
2023-04-24T01:56:04.262Z,14.88
2023-04-24T01:58:03.618Z,14.81
2023-04-24T01:59:04.406Z,14.88
2023-04-24T02:01:04.377Z,14.81
2023-04-24T02:02:04.320Z,14.75
2023-04-24T02:03:04.567Z,14.81
2023-04-24T02:05:03.525Z,15.00
2023-04-24T02:06:04.501Z,14.94
2023-04-24T02:07:04.253Z,14.94
2023-04-24T02:08:04.126Z,14.88
2023-04-24T02:09:04.010Z,14.81
2023-04-24T02:11:03.790Z,14.94
2023-04-24T02:12:04.172Z,14.94
2023-04-24T02:13:03.689Z,15.06
2023-04-24T02:14:04.199Z,15.00
2023-04-24T02:15:03.622Z,14.81
2023-04-24T02:16:03.640Z,14.81
2023-04-24T02:17:03.615Z,15.00
2023-04-24T02:18:04.142Z,15.00
2023-04-24T02:20:04.009Z,15.00
2023-04-24T02:21:03.767Z,14.94
2023-04-24T02:22:04.192Z,14.88
2023-04-24T02:24:04.114Z,14.69
2023-04-24T02:25:03.616Z,14.75
2023-04-24T02:26:04.113Z,14.75
2023-04-24T02:27:03.697Z,14.62
2023-04-24T02:29:03.957Z,14.75
2023-04-24T02:30:03.703Z,14.69
2023-04-24T02:31:03.543Z,14.69
2023-04-24T02:32:04.040Z,14.88
2023-04-24T02:34:04.013Z,14.81
2023-04-24T02:35:03.625Z,14.81
2023-04-24T02:36:03.920Z,15.00
2023-04-24T02:37:04.366Z,14.94
2023-04-24T02:38:03.933Z,14.88
2023-04-24T02:39:03.707Z,14.75
2023-04-24T02:41:04.322Z,14.69
2023-04-24T02:43:03.698Z,14.69
2023-04-24T02:44:04.181Z,14.62
2023-04-24T02:45:03.600Z,14.62
2023-04-24T02:46:04.472Z,14.62
2023-04-24T02:48:04.050Z,14.75
2023-04-24T02:50:03.911Z,14.62
2023-04-24T02:51:04.006Z,14.62
2023-04-24T02:52:03.773Z,14.56
2023-04-24T02:53:04.245Z,14.50
2023-04-24T02:54:04.166Z,14.50
2023-04-24T02:55:03.529Z,14.44
2023-04-24T02:57:03.838Z,14.56
2023-04-24T02:59:04.245Z,14.56
2023-04-24T03:00:04.241Z,14.50
2023-04-24T03:01:04.202Z,14.44
2023-04-24T03:03:03.692Z,14.44
2023-04-24T03:04:04.127Z,14.44
2023-04-24T03:06:04.163Z,14.44
2023-04-24T03:07:03.696Z,14.44
2023-04-24T03:08:04.255Z,14.62
2023-04-24T03:09:03.996Z,14.75
2023-04-24T03:10:04.009Z,14.62
2023-04-24T03:11:04.406Z,14.56
2023-04-24T03:12:03.949Z,14.62
2023-04-24T03:13:03.441Z,14.69
2023-04-24T03:15:03.762Z,14.81
2023-04-24T03:17:03.862Z,14.81
2023-04-24T03:18:04.362Z,14.81
2023-04-24T03:21:04.157Z,14.81
2023-04-24T03:22:04.088Z,14.88
2023-04-24T03:23:03.771Z,14.88
2023-04-24T03:24:04.261Z,14.88
2023-04-24T03:26:04.086Z,14.75
2023-04-24T03:27:03.517Z,14.81
2023-04-24T03:30:04.352Z,15.00
2023-04-24T03:31:03.856Z,14.94
2023-04-24T03:32:03.719Z,15.12
2023-04-24T03:33:03.756Z,15.00
2023-04-24T03:34:04.418Z,14.81
2023-04-24T03:35:03.938Z,14.69
2023-04-24T03:36:03.780Z,14.69
2023-04-24T03:38:03.920Z,14.81
2023-04-24T03:39:04.025Z,14.75
2023-04-24T03:40:04.348Z,14.62
2023-04-24T03:41:03.865Z,14.69
2023-04-24T03:43:04.197Z,14.75
2023-04-24T03:45:04.168Z,14.69
2023-04-24T03:46:03.714Z,14.69
2023-04-24T03:47:04.249Z,14.69
2023-04-24T03:48:05.100Z,14.69
2023-04-24T03:49:03.944Z,14.62
2023-04-24T03:50:04.414Z,14.62
2023-04-24T03:51:03.860Z,14.88
2023-04-24T03:52:03.861Z,14.88
2023-04-24T03:53:04.246Z,14.88
2023-04-24T03:56:04.099Z,14.88
2023-04-24T03:57:03.839Z,14.88
2023-04-24T03:59:04.181Z,15.00
2023-04-24T04:00:03.617Z,15.25
2023-04-24T04:02:03.990Z,15.31
2023-04-24T04:03:03.709Z,15.19
2023-04-24T04:04:03.806Z,15.12
2023-04-24T04:05:03.632Z,15.06
2023-04-24T04:06:04.332Z,15.00
2023-04-24T04:08:03.849Z,15.31
2023-04-24T04:09:04.153Z,15.19
2023-04-24T04:11:05.201Z,15.00
2023-04-24T04:12:04.255Z,14.94
2023-04-24T04:14:03.607Z,15.19
2023-04-24T04:16:03.976Z,15.00
2023-04-24T04:19:04.014Z,14.75
2023-04-24T04:21:04.495Z,14.75
2023-04-24T04:23:04.328Z,14.62
2023-04-24T04:24:03.870Z,14.62
2023-04-24T04:25:03.797Z,14.69
2023-04-24T04:26:04.342Z,14.69
2023-04-24T04:28:04.167Z,14.56
2023-04-24T04:30:04.331Z,14.44
2023-04-24T04:32:03.826Z,14.50
2023-04-24T04:33:04.042Z,14.44
2023-04-24T04:35:04.143Z,14.50
2023-04-24T04:36:04.421Z,14.38
2023-04-24T04:37:04.402Z,14.31
2023-04-24T04:38:04.325Z,14.38
2023-04-24T04:39:03.776Z,14.50
2023-04-24T04:40:04.258Z,14.69
2023-04-24T04:41:03.786Z,14.62
2023-04-24T04:43:05.006Z,14.50
2023-04-24T04:44:04.017Z,14.62
2023-04-24T04:46:04.491Z,14.62
2023-04-24T04:47:03.616Z,14.56
2023-04-24T04:48:03.623Z,14.50
2023-04-24T04:49:04.328Z,14.44
2023-04-24T04:51:03.869Z,14.38
2023-04-24T04:52:04.252Z,14.31
2023-04-24T04:53:03.786Z,14.31
2023-04-24T04:54:04.494Z,14.31
2023-04-24T04:56:03.630Z,14.38
2023-04-24T04:57:04.427Z,14.44
2023-04-24T04:58:04.263Z,14.38
2023-04-24T04:59:03.761Z,14.38
2023-04-24T05:01:03.980Z,14.38
2023-04-24T05:03:18.981Z,14.31
2023-04-24T05:04:03.802Z,14.38
2023-04-24T05:05:04.355Z,14.38
2023-04-24T05:07:04.339Z,14.62
2023-04-24T05:08:05.643Z,14.56
2023-04-24T05:09:04.265Z,14.69
2023-04-24T05:10:03.791Z,14.62
2023-04-24T05:11:03.687Z,14.62
2023-04-24T05:12:03.529Z,14.62
2023-04-24T05:13:04.410Z,14.75
2023-04-24T05:14:04.013Z,14.75
2023-04-24T05:15:04.411Z,14.62
2023-04-24T05:16:04.021Z,14.56
2023-04-24T05:17:04.547Z,14.94
2023-04-24T05:18:03.746Z,14.88
2023-04-24T05:19:04.287Z,14.75
2023-04-24T05:20:04.418Z,14.69
2023-04-24T05:21:03.851Z,14.75
2023-04-24T05:22:03.863Z,14.75
2023-04-24T05:23:04.262Z,14.75
2023-04-24T05:24:03.786Z,14.81
2023-04-24T05:25:04.112Z,14.81
2023-04-24T05:26:05.616Z,14.81
2023-04-24T05:27:04.026Z,14.81
2023-04-24T05:29:04.251Z,14.88
2023-04-24T05:30:04.019Z,14.94
2023-04-24T05:32:03.614Z,15.12
2023-04-24T05:33:03.688Z,15.12
2023-04-24T05:34:04.046Z,15.06
2023-04-24T05:36:03.979Z,15.06
2023-04-24T05:37:04.501Z,15.06
2023-04-24T05:39:03.707Z,15.06
2023-04-24T05:40:04.280Z,15.00
2023-04-24T05:41:03.703Z,14.88
2023-04-24T05:42:04.255Z,14.81
2023-04-24T05:43:03.937Z,14.75
2023-04-24T05:45:04.380Z,14.62
2023-04-24T05:48:04.239Z,14.75
2023-04-24T05:49:03.868Z,14.88
2023-04-24T05:50:03.712Z,15.06
2023-04-24T05:51:04.105Z,15.06
2023-04-24T05:52:03.618Z,15.06
2023-04-24T05:53:04.088Z,15.19
2023-04-24T05:54:03.868Z,15.06
2023-04-24T05:55:04.409Z,15.00
2023-04-24T05:56:04.169Z,15.12
2023-04-24T05:57:04.158Z,15.31
2023-04-24T05:59:04.257Z,15.44
2023-04-24T06:01:03.703Z,15.44
2023-04-24T06:02:03.875Z,15.50
2023-04-24T06:03:04.662Z,15.56
2023-04-24T06:05:04.375Z,15.75
2023-04-24T06:06:04.219Z,15.88
2023-04-24T06:07:03.691Z,16.06
2023-04-24T06:08:04.256Z,16.56
2023-04-24T06:10:03.602Z,16.31
2023-04-24T06:11:04.616Z,16.12
2023-04-24T06:14:04.098Z,15.81
2023-04-24T06:16:04.292Z,15.81
2023-04-24T06:17:03.808Z,15.81
2023-04-24T06:19:04.336Z,15.81
2023-04-24T06:21:03.773Z,15.88
2023-04-24T06:22:04.696Z,16.12
2023-04-24T06:23:04.350Z,16.00
2023-04-24T06:25:03.621Z,15.81
2023-04-24T06:26:04.213Z,15.81
2023-04-24T06:27:04.101Z,15.81
2023-04-24T06:28:04.043Z,15.88
2023-04-24T06:29:03.935Z,15.88
2023-04-24T06:31:04.350Z,16.00
2023-04-24T06:32:03.880Z,16.19
2023-04-24T06:33:13.306Z,16.19
2023-04-24T06:34:04.422Z,16.38
2023-04-24T06:35:03.792Z,16.50
2023-04-24T06:36:04.175Z,16.50
2023-04-24T06:37:04.193Z,16.44
2023-04-24T06:38:04.115Z,16.50
2023-04-24T06:40:03.553Z,16.69
2023-04-24T06:41:04.017Z,16.75
2023-04-24T06:42:03.554Z,16.62
2023-04-24T06:43:04.015Z,16.88
2023-04-24T06:44:04.410Z,17.25
2023-04-24T06:45:04.415Z,17.31
2023-04-24T06:47:03.884Z,17.31
2023-04-24T06:48:03.561Z,17.19
2023-04-24T06:49:04.034Z,17.19
2023-04-24T06:51:04.060Z,17.12
2023-04-24T06:52:04.504Z,17.19
2023-04-24T06:53:03.848Z,17.19
2023-04-24T06:55:04.192Z,17.19
2023-04-24T06:57:04.192Z,17.19
2023-04-24T06:58:03.800Z,17.19
2023-04-24T06:59:04.417Z,17.12
2023-04-24T07:01:03.978Z,16.94
2023-04-24T07:02:03.533Z,17.00
2023-04-24T07:03:04.208Z,16.94
2023-04-24T07:04:04.533Z,17.00
2023-04-24T07:06:04.368Z,17.19
2023-04-24T07:07:03.942Z,17.25
2023-04-24T07:09:04.383Z,17.19
2023-04-24T07:10:03.874Z,17.31
2023-04-24T07:11:04.501Z,17.50
2023-04-24T07:12:03.946Z,17.56
2023-04-24T07:13:04.416Z,17.69
2023-04-24T07:14:04.339Z,17.88
2023-04-24T07:15:03.965Z,17.75
2023-04-24T07:17:04.497Z,17.81
2023-04-24T07:18:05.736Z,17.81
2023-04-24T07:19:03.706Z,17.88
2023-04-24T07:21:04.026Z,17.81
2023-04-24T07:22:04.372Z,17.75
2023-04-24T07:24:04.209Z,17.69
2023-04-24T07:25:03.696Z,17.62
2023-04-24T07:26:03.543Z,17.62
2023-04-24T07:27:03.687Z,17.69
2023-04-24T07:28:04.265Z,17.88
2023-04-24T07:30:04.188Z,17.81
2023-04-24T07:31:03.615Z,17.88
2023-04-24T07:32:04.398Z,17.81
2023-04-24T07:33:04.390Z,17.88
2023-04-24T07:34:03.621Z,17.88
2023-04-24T07:35:04.424Z,17.81
2023-04-24T07:36:04.258Z,18.06
2023-04-24T07:38:03.876Z,17.94
2023-04-24T07:39:03.946Z,18.00
2023-04-24T07:40:04.744Z,17.94
2023-04-24T07:41:04.442Z,18.00
2023-04-24T07:42:03.940Z,17.81
2023-04-24T07:44:04.175Z,17.56
2023-04-24T07:46:04.841Z,17.81
2023-04-24T07:47:04.101Z,17.75
2023-04-24T07:48:03.957Z,18.06
2023-04-24T07:49:12.860Z,18.12
2023-04-24T07:50:03.701Z,18.44
2023-04-24T07:51:05.102Z,18.31
2023-04-24T07:52:03.702Z,18.38
2023-04-24T07:53:04.344Z,18.44
2023-04-24T07:54:03.784Z,18.44
2023-04-24T07:55:04.253Z,18.50
2023-04-24T07:56:04.023Z,18.50
2023-04-24T07:58:04.338Z,18.38
2023-04-24T08:00:04.332Z,18.31
2023-04-24T08:01:03.852Z,18.38
2023-04-24T08:02:04.334Z,18.38
2023-04-24T08:03:04.282Z,18.50
2023-04-24T08:04:04.455Z,18.69
2023-04-24T08:05:04.069Z,18.69
2023-04-24T08:06:03.789Z,18.69
2023-04-24T08:07:04.595Z,18.81
2023-04-24T08:08:04.499Z,18.81
2023-04-24T08:10:03.531Z,18.81
2023-04-24T08:11:04.028Z,18.56
2023-04-24T08:12:03.689Z,18.44
2023-04-24T08:14:04.100Z,18.31
2023-04-24T08:15:03.548Z,18.50
2023-04-24T08:16:03.994Z,18.62
2023-04-24T08:17:04.110Z,18.50
2023-04-24T08:18:03.487Z,18.50
2023-04-24T08:21:04.358Z,18.62
2023-04-24T08:22:03.774Z,18.75
2023-04-24T08:24:04.428Z,18.44
2023-04-24T08:25:03.859Z,18.44
2023-04-24T08:26:04.254Z,18.38
2023-04-24T08:28:04.267Z,18.50
2023-04-24T08:29:04.215Z,18.81
2023-04-24T08:31:03.617Z,18.94
2023-04-24T08:32:03.713Z,18.88
2023-04-24T08:33:04.294Z,18.81
2023-04-24T08:34:03.945Z,18.81
2023-04-24T08:35:04.338Z,18.81
2023-04-24T08:37:04.019Z,18.75
2023-04-24T08:38:04.339Z,19.06
2023-04-24T08:40:04.092Z,18.94
2023-04-24T08:41:04.106Z,18.88
2023-04-24T08:42:03.776Z,18.88
2023-04-24T08:43:04.366Z,18.88
2023-04-24T08:44:04.198Z,18.81
2023-04-24T08:46:06.143Z,18.75
2023-04-24T08:47:04.256Z,18.75
2023-04-24T08:49:04.267Z,18.94
2023-04-24T08:50:03.809Z,18.94
2023-04-24T08:52:04.029Z,18.81
2023-04-24T08:53:05.119Z,18.88
2023-04-24T08:54:04.018Z,18.81
2023-04-24T08:57:03.934Z,18.62
2023-04-24T08:58:03.722Z,18.62
2023-04-24T08:59:04.176Z,18.62
2023-04-24T09:01:04.123Z,18.62
2023-04-24T09:02:03.728Z,18.56
2023-04-24T09:03:04.399Z,18.62
2023-04-24T09:05:03.864Z,18.50
2023-04-24T09:06:03.798Z,18.50
2023-04-24T09:07:04.275Z,18.38
2023-04-24T09:09:03.520Z,18.56
2023-04-24T09:10:04.040Z,18.50
2023-04-24T09:11:03.861Z,18.50
2023-04-24T09:14:04.340Z,18.50
2023-04-24T09:15:03.876Z,18.69
2023-04-24T09:16:03.787Z,18.56
2023-04-24T09:17:03.884Z,18.56
2023-04-24T09:18:04.367Z,18.56
2023-04-24T09:19:03.949Z,18.62
2023-04-24T09:20:04.336Z,18.56
2023-04-24T09:22:04.419Z,18.56
2023-04-24T09:24:04.345Z,18.56
2023-04-24T09:25:03.867Z,18.38
2023-04-24T09:26:04.422Z,18.25
2023-04-24T09:28:04.424Z,18.25
2023-04-24T09:29:04.095Z,18.44
2023-04-24T09:30:03.682Z,18.38
2023-04-24T09:31:04.328Z,18.31
2023-04-24T09:32:03.905Z,18.19
2023-04-24T09:33:03.990Z,18.19
2023-04-24T09:34:04.524Z,18.19
2023-04-24T09:36:03.557Z,18.19
2023-04-24T09:37:04.011Z,18.19
2023-04-24T09:39:04.505Z,18.38
2023-04-24T09:40:04.099Z,18.44
2023-04-24T09:41:03.622Z,18.50
2023-04-24T09:42:03.640Z,18.50
2023-04-24T09:43:03.535Z,18.50
2023-04-24T09:45:14.545Z,18.38
2023-04-24T09:46:04.363Z,18.38
2023-04-24T09:47:03.868Z,18.31
2023-04-24T09:49:04.268Z,18.25
2023-04-24T09:50:04.081Z,18.25
2023-04-24T09:53:04.094Z,18.38
2023-04-24T09:55:04.177Z,18.31
2023-04-24T09:56:03.620Z,18.31
2023-04-24T09:57:04.182Z,18.12
2023-04-24T09:59:04.249Z,18.06
2023-04-24T10:00:03.715Z,17.94
2023-04-24T10:01:04.207Z,17.94
2023-04-24T10:02:03.913Z,18.06
2023-04-24T10:03:03.637Z,18.06
2023-04-24T10:04:04.392Z,18.19
2023-04-24T10:05:05.040Z,18.50
2023-04-24T10:06:03.753Z,18.69
2023-04-24T10:07:03.611Z,18.81
2023-04-24T10:08:03.616Z,18.75
2023-04-24T10:09:04.410Z,18.69
2023-04-24T10:10:04.018Z,18.56
2023-04-24T10:11:03.965Z,18.50
2023-04-24T10:13:04.421Z,18.31
2023-04-24T10:14:04.010Z,18.12
2023-04-24T10:15:04.094Z,18.12
2023-04-24T10:17:03.689Z,18.38
2023-04-24T10:18:04.324Z,18.31
2023-04-24T10:19:03.773Z,18.25
2023-04-24T10:21:04.264Z,18.19
2023-04-24T10:22:04.940Z,18.31
2023-04-24T10:23:04.274Z,18.44
2023-04-24T10:24:03.858Z,18.38
2023-04-24T10:26:04.036Z,18.31
2023-04-24T10:28:04.030Z,18.38
2023-04-24T10:29:03.558Z,18.38
2023-04-24T10:30:03.841Z,18.75
2023-04-24T10:31:03.915Z,18.75
2023-04-24T10:32:03.934Z,18.69
2023-04-24T10:34:04.338Z,18.62
2023-04-24T10:35:03.934Z,18.75
2023-04-24T10:36:03.949Z,18.75
2023-04-24T10:38:04.407Z,18.88
2023-04-24T10:39:04.410Z,18.94
2023-04-24T10:40:04.447Z,19.06
2023-04-24T10:41:03.934Z,19.00
2023-04-24T10:43:04.499Z,18.75
2023-04-24T10:45:03.692Z,18.75
2023-04-24T10:46:03.710Z,18.69
2023-04-24T10:47:04.227Z,18.75
2023-04-24T10:48:05.915Z,18.75
2023-04-24T10:49:03.852Z,18.75
2023-04-24T10:50:04.275Z,18.69
2023-04-24T10:51:03.704Z,18.56
2023-04-24T10:53:04.269Z,18.50
2023-04-24T10:54:03.698Z,18.44
2023-04-24T10:55:03.607Z,18.44
2023-04-24T10:57:04.174Z,18.31
2023-04-24T10:58:03.616Z,18.38
2023-04-24T10:59:03.924Z,18.50
2023-04-24T11:00:06.100Z,18.50
2023-04-24T11:02:04.418Z,18.75
2023-04-24T11:04:04.626Z,18.56
2023-04-24T11:05:04.387Z,18.44
2023-04-24T11:07:03.492Z,18.56
2023-04-24T11:08:04.695Z,18.50
2023-04-24T11:09:04.029Z,18.44
2023-04-24T11:10:03.699Z,18.44
2023-04-24T11:12:04.083Z,18.31
2023-04-24T11:13:03.610Z,18.31
2023-04-24T11:14:04.342Z,18.25
2023-04-24T11:15:04.546Z,18.19
2023-04-24T11:16:04.342Z,18.19
2023-04-24T11:17:03.635Z,18.19
2023-04-24T11:18:04.206Z,18.25
2023-04-24T11:19:04.269Z,18.25
2023-04-24T11:20:09.340Z,18.19
2023-04-24T11:21:04.345Z,18.19
2023-04-24T11:22:04.289Z,18.25
2023-04-24T11:23:04.025Z,18.44
2023-04-24T11:24:03.771Z,18.56
2023-04-24T11:25:04.251Z,18.88
2023-04-24T11:26:03.852Z,18.88
2023-04-24T11:27:04.437Z,18.88
2023-04-24T11:29:03.699Z,18.88
2023-04-24T11:30:04.495Z,18.75
2023-04-24T11:32:04.297Z,18.81
2023-04-24T11:33:03.882Z,18.75
2023-04-24T11:34:04.327Z,18.81
2023-04-24T11:35:03.781Z,18.81
2023-04-24T11:36:04.350Z,18.75
2023-04-24T11:37:03.688Z,18.69
2023-04-24T11:38:19.210Z,18.75
2023-04-24T11:39:03.611Z,18.69
2023-04-24T11:40:04.265Z,18.75
2023-04-24T11:41:04.014Z,18.81
2023-04-24T11:42:04.036Z,19.00
2023-04-24T11:43:07.569Z,19.00
2023-04-24T11:44:04.022Z,19.06
2023-04-24T11:45:03.997Z,19.06
2023-04-24T11:46:04.965Z,18.94
2023-04-24T11:48:04.508Z,18.75
2023-04-24T11:49:04.495Z,18.69
2023-04-24T11:51:04.354Z,18.75
2023-04-24T11:52:03.852Z,18.69
2023-04-24T11:53:03.801Z,18.81
2023-04-24T11:54:04.819Z,18.81
2023-04-24T11:56:04.094Z,18.81
2023-04-24T11:57:04.096Z,18.81
2023-04-24T12:00:04.387Z,18.69
2023-04-24T12:01:04.414Z,18.56
2023-04-24T12:02:04.414Z,18.75
2023-04-24T12:03:04.185Z,18.81
2023-04-24T12:04:04.491Z,19.06
2023-04-24T12:06:03.606Z,18.94
2023-04-24T12:07:04.179Z,18.88
2023-04-24T12:09:08.176Z,18.69
2023-04-24T12:10:04.303Z,18.62
2023-04-24T12:11:04.090Z,18.62
2023-04-24T12:12:04.022Z,18.62
2023-04-24T12:14:03.601Z,18.75
2023-04-24T12:15:03.644Z,18.81
2023-04-24T12:16:04.380Z,18.81
2023-04-24T12:17:04.090Z,18.81
2023-04-24T12:19:03.451Z,18.75
2023-04-24T12:21:04.115Z,18.62
2023-04-24T12:23:03.937Z,18.56
2023-04-24T12:24:03.534Z,18.50
2023-04-24T12:26:04.094Z,18.50
2023-04-24T12:27:03.937Z,18.62
2023-04-24T12:28:04.044Z,18.75
2023-04-24T12:30:03.931Z,18.75
2023-04-24T12:31:03.976Z,18.75
2023-04-24T12:33:03.708Z,18.62
2023-04-24T12:35:04.244Z,18.62
2023-04-24T12:36:03.767Z,18.69
2023-04-24T12:37:03.706Z,18.69
2023-04-24T12:38:03.699Z,18.81
2023-04-24T12:40:04.014Z,18.94
2023-04-24T12:42:04.429Z,18.88
2023-04-24T12:43:03.932Z,18.81
2023-04-24T12:45:04.253Z,18.88
2023-04-24T12:47:03.623Z,19.06
2023-04-24T12:48:04.205Z,19.25
2023-04-24T12:50:03.715Z,19.06
2023-04-24T12:51:04.274Z,19.12
2023-04-24T12:52:04.498Z,19.19
2023-04-24T12:53:04.428Z,19.31
2023-04-24T12:54:04.350Z,19.25
2023-04-24T12:56:03.701Z,19.12
2023-04-24T12:57:04.114Z,19.12
2023-04-24T12:59:04.099Z,19.00
2023-04-24T13:00:03.852Z,19.00
2023-04-24T13:01:04.065Z,19.12
2023-04-24T13:02:03.548Z,19.12
2023-04-24T13:03:04.371Z,19.12
2023-04-24T13:06:04.485Z,19.19
2023-04-24T13:07:03.949Z,19.25
2023-04-24T13:08:04.495Z,19.25
2023-04-24T13:09:04.038Z,19.31
2023-04-24T13:10:04.023Z,19.25
2023-04-24T13:11:04.027Z,19.25
2023-04-24T13:12:04.331Z,19.25
2023-04-24T13:13:04.413Z,19.12
2023-04-24T13:14:03.846Z,19.12
2023-04-24T13:15:03.689Z,19.19
2023-04-24T13:16:03.909Z,19.19
2023-04-24T13:17:03.784Z,19.12
2023-04-24T13:18:04.417Z,19.12
2023-04-24T13:19:03.887Z,19.06
2023-04-24T13:20:04.273Z,19.31
2023-04-24T13:21:04.013Z,19.12
2023-04-24T13:22:04.577Z,19.00
2023-04-24T13:23:03.942Z,19.06
2023-04-24T13:24:03.947Z,19.12
2023-04-24T13:25:03.542Z,19.19
2023-04-24T13:27:03.801Z,19.12
2023-04-24T13:29:04.263Z,18.94
2023-04-24T13:31:03.553Z,18.88
2023-04-24T13:32:03.652Z,19.00
2023-04-24T13:33:04.171Z,18.88
2023-04-24T13:34:03.770Z,18.88
2023-04-24T13:35:04.163Z,18.94
2023-04-24T13:37:04.112Z,19.00
2023-04-24T13:38:03.682Z,19.19
2023-04-24T13:39:04.176Z,19.12
2023-04-24T13:40:03.684Z,19.00
2023-04-24T13:41:04.086Z,18.94
2023-04-24T13:42:05.021Z,18.81
2023-04-24T13:43:03.861Z,18.75
2023-04-24T13:44:04.599Z,18.75
2023-04-24T13:45:14.318Z,18.81
2023-04-24T13:47:04.324Z,18.81
2023-04-24T13:48:03.897Z,18.88
2023-04-24T13:49:04.501Z,18.75
2023-04-24T13:51:03.636Z,18.88
2023-04-24T13:52:03.539Z,18.94
2023-04-24T13:53:03.930Z,18.81
2023-04-24T13:54:04.254Z,18.81
2023-04-24T13:55:04.328Z,18.75
2023-04-24T13:57:04.267Z,18.69
2023-04-24T13:59:03.802Z,18.56
2023-04-24T14:00:04.395Z,18.44
2023-04-24T14:01:04.045Z,18.44
2023-04-24T14:03:04.082Z,18.69
2023-04-24T14:04:04.025Z,18.75
2023-04-24T14:05:04.023Z,18.69
2023-04-24T14:06:03.957Z,18.62
2023-04-24T14:07:04.416Z,18.62
2023-04-24T14:09:03.532Z,18.62
2023-04-24T14:11:04.559Z,18.38
2023-04-24T14:13:04.102Z,18.38
2023-04-24T14:15:04.506Z,18.38
2023-04-24T14:17:04.442Z,18.38
2023-04-24T14:19:03.850Z,18.38
2023-04-24T14:20:04.493Z,18.31
2023-04-24T14:22:03.622Z,18.38
2023-04-24T14:23:04.276Z,18.50
2023-04-24T14:25:04.092Z,18.25
2023-04-24T14:26:03.706Z,18.25
2023-04-24T14:27:04.173Z,17.88
2023-04-24T14:28:04.007Z,17.75
2023-04-24T14:29:13.855Z,17.75
2023-04-24T14:30:04.058Z,17.69
2023-04-24T14:31:03.604Z,17.69
2023-04-24T14:32:04.248Z,17.50
2023-04-24T14:33:03.730Z,17.62
2023-04-24T14:35:03.770Z,17.50
2023-04-24T14:36:04.422Z,17.56
2023-04-24T14:37:03.931Z,17.62
2023-04-24T14:38:03.853Z,17.69
2023-04-24T14:39:03.686Z,17.69
2023-04-24T14:40:15.695Z,17.62
2023-04-24T14:41:07.342Z,17.62
2023-04-24T14:42:04.331Z,17.69
2023-04-24T14:43:04.273Z,17.69
2023-04-24T14:44:04.090Z,17.56
2023-04-24T14:46:03.697Z,17.56
2023-04-24T14:47:04.140Z,17.50
2023-04-24T14:48:04.128Z,17.69
2023-04-24T14:50:04.076Z,17.88
2023-04-24T14:51:03.770Z,17.81
2023-04-24T14:52:04.166Z,17.56
2023-04-24T14:54:03.769Z,17.75
2023-04-24T14:55:03.685Z,17.69
2023-04-24T14:57:04.168Z,17.56
2023-04-24T14:58:03.624Z,17.50
2023-04-24T14:59:03.540Z,17.38
2023-04-24T15:00:03.617Z,17.31
2023-04-24T15:02:15.361Z,17.06
2023-04-24T15:04:04.435Z,17.00
2023-04-24T15:06:03.863Z,17.25
2023-04-24T15:07:04.425Z,17.38
2023-04-24T15:10:04.115Z,17.62
2023-04-24T15:11:03.619Z,17.62
2023-04-24T15:12:04.104Z,17.62
2023-04-24T15:13:04.096Z,17.69
2023-04-24T15:15:03.717Z,17.94
2023-04-24T15:16:04.327Z,18.12
2023-04-24T15:17:04.482Z,18.19
2023-04-24T15:19:04.105Z,18.19
2023-04-24T15:21:04.286Z,17.94
2023-04-24T15:22:03.785Z,17.81
2023-04-24T15:23:03.776Z,17.69
2023-04-24T15:25:03.527Z,17.62
2023-04-24T15:26:03.791Z,17.69
2023-04-24T15:27:03.605Z,17.62
2023-04-24T15:29:04.255Z,18.06
2023-04-24T15:31:03.697Z,17.94
2023-04-24T15:33:04.201Z,17.62
2023-04-24T15:35:08.281Z,17.50
2023-04-24T15:36:04.189Z,17.50
2023-04-24T15:37:04.185Z,17.50
2023-04-24T15:38:03.782Z,17.44
2023-04-24T15:39:04.881Z,17.38
2023-04-24T15:40:04.170Z,17.38
2023-04-24T15:41:03.694Z,17.44
2023-04-24T15:42:03.687Z,17.25
2023-04-24T15:43:03.693Z,17.25
2023-04-24T15:44:04.358Z,17.31
2023-04-24T15:46:04.500Z,17.38
2023-04-24T15:47:04.100Z,17.31
2023-04-24T15:48:04.245Z,17.56
2023-04-24T15:49:04.259Z,17.44
2023-04-24T15:50:03.858Z,17.31
2023-04-24T15:51:03.860Z,17.31
2023-04-24T15:52:04.336Z,17.25
2023-04-24T15:53:04.358Z,17.12
2023-04-24T15:54:03.855Z,17.12
2023-04-24T15:55:05.381Z,17.31
2023-04-24T15:56:04.016Z,17.31
2023-04-24T15:57:03.538Z,17.25
2023-04-24T15:58:04.023Z,17.25
2023-04-24T15:59:03.547Z,17.12
2023-04-24T16:00:04.175Z,17.06
2023-04-24T16:01:04.035Z,17.00
2023-04-24T16:02:04.014Z,16.94
2023-04-24T16:03:03.757Z,16.88
2023-04-24T16:04:04.385Z,17.06
2023-04-24T16:05:04.177Z,16.94
2023-04-24T16:07:03.625Z,17.00
2023-04-24T16:08:04.197Z,16.94
2023-04-24T16:09:03.958Z,16.88
2023-04-24T16:11:04.267Z,16.94
2023-04-24T16:12:04.169Z,16.94
2023-04-24T16:13:04.325Z,16.69
2023-04-24T16:14:03.945Z,16.69
2023-04-24T16:15:03.560Z,16.62
2023-04-24T16:16:03.641Z,16.62
2023-04-24T16:17:04.360Z,16.69
2023-04-24T16:18:03.887Z,16.94
2023-04-24T16:19:03.669Z,16.88
2023-04-24T16:20:04.049Z,17.06
2023-04-24T16:21:03.606Z,17.06
2023-04-24T16:22:03.615Z,17.06
2023-04-24T16:23:03.618Z,17.06
2023-04-24T16:24:04.020Z,17.06
2023-04-24T16:25:04.047Z,16.94
2023-04-24T16:26:03.719Z,16.75
2023-04-24T16:27:04.254Z,16.56
2023-04-24T16:29:03.681Z,16.50
2023-04-24T16:30:04.283Z,16.50
2023-04-24T16:31:03.891Z,16.38
2023-04-24T16:32:04.424Z,16.25
2023-04-24T16:34:03.768Z,16.50
2023-04-24T16:35:04.166Z,16.56